Pagina principală
METAR-TAF:

METAR-TAF

Aeroporturi :

Hydaburg, Alaska, Statele Unite ale Americii

Latitudine: 55-12N, longitudine: 132-50W, elevație: 0 m

Observații meteo curente

Raportul a fost făcut în urmă cu 1 oră și 11 de minute, la 01:56 UTC
Vânt 11 kt de la Est/Sud-est
Temperatură 8°C
Umiditate 87%
Presiune 1008 hPa
Vizibilitate: 16.1 km
Nori fragmentați la o înălțime de 2000 picior
Total acoperit la o înălțime de 4100 picior
ploaie slabă

METAR: PAHY 270156Z AUTO 11011KT 10SM -RA BKN020 OVC041 08/06 A2977 RMK AO2 SLP078 T00780056 PNO $

Ora: 19:07 (03:07 UTC)


TAF: lipsă

Observații și prognoze meteo pentru peste 4.000 de aeroporturi (rapoarte METAR și TAF).

Stațiile disponibile sunt reprezentate pe hartă prin puncte galbene și roșii.

Țineți indicatorul mouse-ului pe punctul dorit pentru a vedea denumirea stației.

Apoi, faceți clic pentru a vedea observațiile și prognozele meteorologice.

Pentru a schimba harta: Pentru mărire, faceți clic pe butoanele verzi cu cruce neagră; pentru micșorare, pe butonul verde cu o liniuță; pentru hărți învecinate, pe săgețile verzi.


METAR-TAF: